createdAt,value
2023-02-18T00:00:37.147Z,9.50
2023-02-18T00:01:42.482Z,9.73
2023-02-18T00:02:45.705Z,9.57
2023-02-18T00:03:52.746Z,9.18
2023-02-18T00:05:15.523Z,9.40
2023-02-18T00:06:38.833Z,8.00
2023-02-18T00:08:01.360Z,9.80
2023-02-18T00:09:24.043Z,9.32
2023-02-18T00:10:26.958Z,10.07
2023-02-18T00:11:31.367Z,10.27
2023-02-18T00:12:33.117Z,10.02
2023-02-18T00:13:35.710Z,10.52
2023-02-18T00:14:39.564Z,10.80
2023-02-18T00:15:41.118Z,10.45
2023-02-18T00:16:45.781Z,9.82
2023-02-18T00:17:50.324Z,10.30
2023-02-18T00:18:56.044Z,9.90
2023-02-18T00:19:57.596Z,9.55
2023-02-18T00:21:00.398Z,10.68
2023-02-18T00:22:01.997Z,10.85
2023-02-18T00:23:04.541Z,9.65
2023-02-18T00:24:07.844Z,9.52
2023-02-18T00:25:12.022Z,9.45
2023-02-18T00:26:17.307Z,10.90
2023-02-18T00:27:20.070Z,9.25
2023-02-18T00:28:21.583Z,9.68
2023-02-18T00:29:24.132Z,9.70
2023-02-18T00:30:25.884Z,9.82
2023-02-18T00:31:30.121Z,10.60
2023-02-18T00:32:32.188Z,10.00
2023-02-18T00:33:34.839Z,9.68
2023-02-18T00:34:36.891Z,9.85
2023-02-18T00:35:39.408Z,9.93
2023-02-18T00:36:41.947Z,11.68
2023-02-18T00:37:54.476Z,10.30
2023-02-18T00:38:57.875Z,11.80
2023-02-18T00:40:00.413Z,11.27
2023-02-18T00:41:01.976Z,9.27
2023-02-18T00:42:06.222Z,10.45
2023-02-18T00:43:08.036Z,10.48
2023-02-18T00:44:10.827Z,11.60
2023-02-18T00:45:12.456Z,11.07
2023-02-18T00:46:15.519Z,10.50
2023-02-18T00:47:17.093Z,12.40
2023-02-18T00:48:19.782Z,9.95
2023-02-18T00:49:22.304Z,10.75
2023-02-18T00:50:23.977Z,10.73
2023-02-18T00:51:26.749Z,11.23
2023-02-18T00:52:28.394Z,10.05
2023-02-18T00:53:31.490Z,10.52
2023-02-18T00:54:33.987Z,11.23
2023-02-18T00:55:39.524Z,10.80
2023-02-18T00:56:42.115Z,10.55
2023-02-18T00:57:45.289Z,10.00
2023-02-18T00:58:47.875Z,9.93
2023-02-18T00:59:49.392Z,10.65
2023-02-18T01:00:52.328Z,10.63
2023-02-18T01:01:53.868Z,11.18
2023-02-18T01:02:56.693Z,11.07
2023-02-18T01:03:58.372Z,10.07
2023-02-18T01:05:01.181Z,10.75
2023-02-18T01:06:02.966Z,10.18
2023-02-18T01:07:05.781Z,10.13
2023-02-18T01:08:08.815Z,9.10
2023-02-18T01:09:21.403Z,9.48
2023-02-18T01:10:23.268Z,8.85
2023-02-18T01:11:26.443Z,9.85
2023-02-18T01:12:28.000Z,10.48
2023-02-18T01:13:32.228Z,9.98
2023-02-18T01:14:34.719Z,9.15
2023-02-18T01:15:36.225Z,9.90
2023-02-18T01:16:38.709Z,9.20
2023-02-18T01:17:49.441Z,10.32
2023-02-18T01:18:52.028Z,9.27
2023-02-18T01:19:53.646Z,9.05
2023-02-18T01:20:56.275Z,9.35
2023-02-18T01:21:57.779Z,8.65
2023-02-18T01:23:00.382Z,10.32
2023-02-18T01:24:02.738Z,9.45
2023-02-18T01:25:07.086Z,9.07
2023-02-18T01:26:10.117Z,10.23
2023-02-18T01:27:12.854Z,8.95
2023-02-18T01:28:15.380Z,9.70
2023-02-18T01:29:19.294Z,8.40
2023-02-18T01:30:22.135Z,10.10
2023-02-18T01:31:24.716Z,9.52
2023-02-18T01:32:26.424Z,8.88
2023-02-18T01:33:28.924Z,9.38
2023-02-18T01:34:30.500Z,10.63
2023-02-18T01:35:33.208Z,9.73
2023-02-18T01:36:34.776Z,9.48
2023-02-18T01:37:37.544Z,10.00
2023-02-18T01:38:39.585Z,9.02
2023-02-18T01:39:42.114Z,8.02
2023-02-18T01:40:48.679Z,8.80
2023-02-18T01:41:51.330Z,8.95
2023-02-18T01:42:53.196Z,9.93
2023-02-18T01:44:22.452Z,9.18
2023-02-18T01:45:50.443Z,9.18
2023-02-18T01:46:53.520Z,9.15
2023-02-18T01:47:55.464Z,9.13
2023-02-18T01:49:01.430Z,9.07
2023-02-18T01:50:03.020Z,10.02
2023-02-18T01:51:10.085Z,10.07
2023-02-18T01:52:15.690Z,9.70
2023-02-18T01:53:22.929Z,8.77
2023-02-18T01:54:29.856Z,8.98
2023-02-18T01:55:33.366Z,9.10
2023-02-18T01:56:38.704Z,8.75
2023-02-18T01:57:40.995Z,8.90
2023-02-18T01:58:44.726Z,9.02
2023-02-18T01:59:52.876Z,10.02
2023-02-18T02:00:54.525Z,9.80
2023-02-18T02:01:57.742Z,9.35
2023-02-18T02:02:59.391Z,10.45
2023-02-18T02:04:01.872Z,8.88
2023-02-18T02:05:03.517Z,9.73
2023-02-18T02:06:15.109Z,10.25
2023-02-18T02:07:18.295Z,9.63
2023-02-18T02:08:20.888Z,9.65
2023-02-18T02:09:26.800Z,9.57
2023-02-18T02:10:38.215Z,9.88
2023-02-18T02:12:09.231Z,9.30
2023-02-18T02:13:20.096Z,8.70
2023-02-18T02:14:34.472Z,9.00
2023-02-18T02:15:45.764Z,9.30
2023-02-18T02:16:56.502Z,8.70
2023-02-18T02:18:26.307Z,8.73
2023-02-18T02:20:07.200Z,9.52
2023-02-18T02:21:41.982Z,8.93
2023-02-18T02:23:23.474Z,9.73
2023-02-18T02:25:05.001Z,9.10
2023-02-18T02:26:41.108Z,8.38
2023-02-18T02:28:09.472Z,8.52
2023-02-18T02:29:50.288Z,7.93
2023-02-18T02:31:14.713Z,8.63
2023-02-18T02:32:50.459Z,8.20
2023-02-18T02:34:16.300Z,7.43
2023-02-18T02:35:21.979Z,8.25
2023-02-18T02:36:30.647Z,8.02
2023-02-18T02:37:42.168Z,8.43
2023-02-18T02:38:56.350Z,8.68
2023-02-18T02:40:13.311Z,8.25
2023-02-18T02:41:27.187Z,9.27
2023-02-18T02:42:39.042Z,9.52
2023-02-18T02:43:53.900Z,8.25
2023-02-18T02:45:02.313Z,8.70
2023-02-18T02:46:12.636Z,8.70
2023-02-18T02:47:20.487Z,8.52
2023-02-18T02:48:29.848Z,8.85
2023-02-18T02:49:44.658Z,8.55
2023-02-18T02:50:54.902Z,8.45
2023-02-18T02:52:01.738Z,9.45
2023-02-18T02:53:12.331Z,9.10
2023-02-18T02:54:16.644Z,9.77
2023-02-18T02:55:19.638Z,9.70
2023-02-18T02:56:24.288Z,10.15
2023-02-18T02:57:48.121Z,9.75
2023-02-18T02:58:59.270Z,9.25
2023-02-18T03:00:07.082Z,10.48
2023-02-18T03:01:24.210Z,9.43
2023-02-18T03:02:38.719Z,8.73
2023-02-18T03:03:57.568Z,9.80
2023-02-18T03:05:15.551Z,9.45
2023-02-18T03:06:33.929Z,8.48
2023-02-18T03:07:53.010Z,9.13
2023-02-18T03:09:06.197Z,10.57
2023-02-18T03:10:24.327Z,8.85
2023-02-18T03:11:29.819Z,9.77
2023-02-18T03:12:39.795Z,10.63
2023-02-18T03:14:01.313Z,10.25
2023-02-18T03:15:08.850Z,9.70
2023-02-18T03:16:19.749Z,10.43
2023-02-18T03:17:25.508Z,9.50
2023-02-18T03:18:35.360Z,8.27
2023-02-18T03:19:39.963Z,9.38
2023-02-18T03:20:49.062Z,10.63
2023-02-18T03:21:55.745Z,10.38
2023-02-18T03:23:00.977Z,9.95
2023-02-18T03:24:10.377Z,9.68
2023-02-18T03:25:15.366Z,9.93
2023-02-18T03:26:19.261Z,10.35
2023-02-18T03:27:25.810Z,10.10
2023-02-18T03:28:31.998Z,9.15
2023-02-18T03:29:35.195Z,9.50
2023-02-18T03:30:46.733Z,9.55
2023-02-18T03:31:54.239Z,9.05
2023-02-18T03:33:00.866Z,8.93
2023-02-18T03:34:07.703Z,8.70
2023-02-18T03:35:21.189Z,8.10
2023-02-18T03:36:26.951Z,10.40
2023-02-18T03:37:30.835Z,8.45
2023-02-18T03:38:36.765Z,8.90
2023-02-18T03:39:42.570Z,10.18
2023-02-18T03:40:44.193Z,9.20
2023-02-18T03:41:47.743Z,9.00
2023-02-18T03:42:59.791Z,8.43
2023-02-18T03:44:05.976Z,7.63
2023-02-18T03:45:08.046Z,8.45
2023-02-18T03:46:11.049Z,7.32
2023-02-18T03:47:18.045Z,8.18
2023-02-18T03:48:20.579Z,7.68
2023-02-18T03:49:22.265Z,7.82
2023-02-18T03:50:24.782Z,7.65
2023-02-18T03:51:27.671Z,7.25
2023-02-18T03:52:30.202Z,6.30
2023-02-18T03:53:31.738Z,6.93
2023-02-18T03:54:34.237Z,6.65
2023-02-18T03:55:35.744Z,6.20
2023-02-18T03:56:38.633Z,6.47
2023-02-18T03:57:40.405Z,6.47
2023-02-18T03:58:43.012Z,6.65
2023-02-18T03:59:44.627Z,6.72
2023-02-18T04:00:47.148Z,5.80
2023-02-18T04:01:48.968Z,5.50
2023-02-18T04:02:52.361Z,5.30
2023-02-18T04:03:55.408Z,4.50
2023-02-18T04:04:57.960Z,5.65
2023-02-18T04:05:59.518Z,4.90
2023-02-18T04:07:03.438Z,6.15
2023-02-18T04:08:05.688Z,6.13
2023-02-18T04:09:09.100Z,5.13
2023-02-18T04:10:11.587Z,4.47
2023-02-18T04:11:14.064Z,5.07
2023-02-18T04:12:15.708Z,4.93
2023-02-18T04:13:28.427Z,4.10
2023-02-18T04:14:30.406Z,4.20
2023-02-18T04:15:34.478Z,3.95
2023-02-18T04:16:36.165Z,3.95
2023-02-18T04:17:38.713Z,3.65
2023-02-18T04:18:40.531Z,4.45
2023-02-18T04:19:43.175Z,3.45
2023-02-18T04:20:46.187Z,4.20
2023-02-18T04:21:48.924Z,3.95
2023-02-18T04:22:51.803Z,4.05
2023-02-18T04:23:54.305Z,4.20
2023-02-18T04:24:55.901Z,3.20
2023-02-18T04:25:58.454Z,3.78
2023-02-18T04:27:00.002Z,3.60
2023-02-18T04:28:02.547Z,3.85
2023-02-18T04:29:04.215Z,3.97
2023-02-18T04:30:09.009Z,3.58
2023-02-18T04:31:20.749Z,3.85
2023-02-18T04:32:23.381Z,3.97
2023-02-18T04:33:25.241Z,3.70
2023-02-18T04:34:27.836Z,3.70
2023-02-18T04:35:29.340Z,3.28
2023-02-18T04:36:31.834Z,3.58
2023-02-18T04:37:34.618Z,3.75
2023-02-18T04:38:37.515Z,3.80
2023-02-18T04:39:40.406Z,3.50
2023-02-18T04:40:41.961Z,3.15
2023-02-18T04:41:44.458Z,3.35
2023-02-18T04:42:46.415Z,3.10
2023-02-18T04:43:49.072Z,3.30
2023-02-18T04:44:50.645Z,3.45
2023-02-18T04:46:03.252Z,3.80
2023-02-18T04:47:05.510Z,3.55
2023-02-18T04:48:08.145Z,3.20
2023-02-18T04:49:09.663Z,3.55
2023-02-18T04:50:12.410Z,3.10
2023-02-18T04:51:13.953Z,3.25
2023-02-18T04:52:16.715Z,3.30
2023-02-18T04:53:18.277Z,3.90
2023-02-18T04:54:22.124Z,3.47
2023-02-18T04:55:23.743Z,4.47
2023-02-18T04:56:26.397Z,3.70
2023-02-18T04:57:27.900Z,3.90
2023-02-18T04:58:30.621Z,4.28
2023-02-18T04:59:32.259Z,4.40
2023-02-18T05:00:34.746Z,4.05
2023-02-18T05:01:37.682Z,4.07
2023-02-18T05:02:40.216Z,4.40
2023-02-18T05:03:41.762Z,5.00
2023-02-18T05:04:44.573Z,3.90
2023-02-18T05:05:46.774Z,3.53
2023-02-18T05:06:49.325Z,4.13
2023-02-18T05:07:50.854Z,3.33
2023-02-18T05:08:53.371Z,3.15
2023-02-18T05:09:56.218Z,2.95
2023-02-18T05:10:58.826Z,3.63
2023-02-18T05:12:00.340Z,2.95
2023-02-18T05:13:02.818Z,2.85
2023-02-18T05:14:04.670Z,3.10
2023-02-18T05:15:16.514Z,2.78
2023-02-18T05:16:18.036Z,2.90
2023-02-18T05:17:20.551Z,3.30
2023-02-18T05:18:22.413Z,2.80
2023-02-18T05:19:27.006Z,3.85
2023-02-18T05:20:28.540Z,3.55
2023-02-18T05:21:31.506Z,3.50
2023-02-18T05:22:33.115Z,3.20
2023-02-18T05:23:41.856Z,3.38
2023-02-18T05:24:43.360Z,3.50
2023-02-18T05:25:47.419Z,3.90
2023-02-18T05:26:49.181Z,4.13
2023-02-18T05:28:01.701Z,4.75
2023-02-18T05:29:03.959Z,5.80
2023-02-18T05:30:07.986Z,3.60
2023-02-18T05:31:09.675Z,4.25
2023-02-18T05:32:12.532Z,4.47
2023-02-18T05:33:14.359Z,4.72
2023-02-18T05:34:16.918Z,3.72
2023-02-18T05:35:18.650Z,4.70
2023-02-18T05:36:21.522Z,5.18
2023-02-18T05:37:23.072Z,4.53
2023-02-18T05:38:25.634Z,4.43
2023-02-18T05:39:27.185Z,3.90
2023-02-18T05:40:30.091Z,3.67
2023-02-18T05:41:33.083Z,4.30
2023-02-18T05:42:40.463Z,4.05
2023-02-18T05:44:01.357Z,4.00
2023-02-18T05:45:04.521Z,3.80
2023-02-18T05:46:06.376Z,3.85
2023-02-18T05:47:11.772Z,3.70
2023-02-18T05:48:13.490Z,3.80
2023-02-18T05:49:15.948Z,3.33
2023-02-18T05:50:17.593Z,3.25
2023-02-18T05:51:20.280Z,3.60
2023-02-18T05:52:22.048Z,3.90
2023-02-18T05:53:25.346Z,3.72
2023-02-18T05:54:28.017Z,3.35
2023-02-18T05:55:30.707Z,4.00
2023-02-18T05:56:33.609Z,3.92
2023-02-18T05:57:36.141Z,3.22
2023-02-18T05:58:37.709Z,3.40
2023-02-18T05:59:40.259Z,3.60
2023-02-18T06:00:41.832Z,3.60
2023-02-18T06:01:45.089Z,4.30
2023-02-18T06:02:46.668Z,4.00
2023-02-18T06:03:49.327Z,3.60
2023-02-18T06:04:51.037Z,3.17
2023-02-18T06:05:53.661Z,3.50
2023-02-18T06:06:55.349Z,4.18
2023-02-18T06:07:58.307Z,3.80
2023-02-18T06:08:59.845Z,3.83
2023-02-18T06:10:02.394Z,4.18
2023-02-18T06:11:04.218Z,3.63
2023-02-18T06:12:08.643Z,4.57
2023-02-18T06:13:10.191Z,3.72
2023-02-18T06:14:12.728Z,4.30
2023-02-18T06:15:14.224Z,4.47
2023-02-18T06:16:16.880Z,4.15
2023-02-18T06:17:18.809Z,5.05
2023-02-18T06:18:21.404Z,4.72
2023-02-18T06:19:23.262Z,4.88
2023-02-18T06:20:25.782Z,4.35
2023-02-18T06:21:28.055Z,5.25
2023-02-18T06:22:30.780Z,4.85
2023-02-18T06:26:04.097Z,4.75
2023-02-18T06:27:07.289Z,5.70
2023-02-18T06:28:10.187Z,4.85
2023-02-18T06:29:11.771Z,4.80
2023-02-18T06:30:14.949Z,4.93
2023-02-18T06:31:16.843Z,4.93
2023-02-18T06:32:19.503Z,4.88
2023-02-18T06:33:23.040Z,4.78
2023-02-18T06:34:26.469Z,4.93
2023-02-18T06:35:27.990Z,5.15
2023-02-18T06:36:30.538Z,5.00
2023-02-18T06:37:32.373Z,4.60
2023-02-18T06:38:35.815Z,5.00
2023-02-18T06:39:39.195Z,4.07
2023-02-18T06:40:41.715Z,4.20
2023-02-18T06:41:54.218Z,3.85
2023-02-18T06:42:57.522Z,4.68
2023-02-18T06:44:00.310Z,4.03
2023-02-18T06:45:01.856Z,4.47
2023-02-18T06:46:05.054Z,4.30
2023-02-18T06:47:07.254Z,3.95
2023-02-18T06:48:10.883Z,4.72
2023-02-18T06:49:12.482Z,4.20
2023-02-18T06:50:15.287Z,4.43
2023-02-18T06:51:16.825Z,3.72
2023-02-18T06:52:19.606Z,3.67
2023-02-18T06:53:21.188Z,4.10
2023-02-18T06:54:24.903Z,3.70
2023-02-18T06:55:26.482Z,2.97
2023-02-18T06:56:30.923Z,3.00
2023-02-18T06:57:32.820Z,3.58
2023-02-18T06:58:37.497Z,2.60
2023-02-18T06:59:41.577Z,3.33
2023-02-18T07:00:44.955Z,3.90
2023-02-18T07:01:46.549Z,3.38
2023-02-18T07:02:49.247Z,3.15
2023-02-18T07:03:50.871Z,2.22
2023-02-18T07:04:53.377Z,3.15
2023-02-18T07:05:54.899Z,2.95
2023-02-18T07:06:57.509Z,2.60
2023-02-18T07:07:59.030Z,3.03
2023-02-18T07:09:01.596Z,3.10
2023-02-18T07:10:03.712Z,2.05
2023-02-18T07:11:07.921Z,3.15
2023-02-18T07:12:09.543Z,2.78
2023-02-18T07:13:12.288Z,2.92
2023-02-18T07:14:15.721Z,2.60
2023-02-18T07:15:21.403Z,2.67
2023-02-18T07:16:26.812Z,2.50
2023-02-18T07:17:28.403Z,2.78
2023-02-18T07:18:30.928Z,2.63
2023-02-18T07:19:32.525Z,3.00
2023-02-18T07:20:35.056Z,2.58
2023-02-18T07:21:36.669Z,2.53
2023-02-18T07:22:39.225Z,3.03
2023-02-18T07:23:41.796Z,4.28
2023-02-18T07:24:43.502Z,2.47
2023-02-18T07:25:46.015Z,2.90
2023-02-18T07:26:47.584Z,3.00
2023-02-18T07:27:55.118Z,2.47
2023-02-18T07:28:56.680Z,3.05
2023-02-18T07:30:00.595Z,2.85
2023-02-18T07:31:02.482Z,3.10
2023-02-18T07:32:05.421Z,3.05
2023-02-18T07:33:07.259Z,2.90
2023-02-18T07:34:09.816Z,2.80
2023-02-18T07:35:13.841Z,2.90
2023-02-18T07:36:16.350Z,3.15
2023-02-18T07:37:17.895Z,2.70
2023-02-18T07:38:20.612Z,2.70
2023-02-18T07:39:22.302Z,3.38
2023-02-18T07:40:25.356Z,2.63
2023-02-18T07:41:26.899Z,2.72
2023-02-18T07:42:29.385Z,2.80
2023-02-18T07:43:30.892Z,2.95
2023-02-18T07:44:33.403Z,2.97
2023-02-18T07:45:39.018Z,3.80
2023-02-18T07:46:41.284Z,3.35
2023-02-18T07:47:45.357Z,3.00
2023-02-18T07:48:50.876Z,3.85
2023-02-18T07:49:53.796Z,2.60
2023-02-18T07:50:55.748Z,3.45
2023-02-18T07:51:58.478Z,2.53
2023-02-18T07:53:00.242Z,2.72
2023-02-18T07:54:02.792Z,2.55
2023-02-18T07:55:04.649Z,2.83
2023-02-18T07:56:08.468Z,3.03
2023-02-18T07:57:10.221Z,2.25
2023-02-18T07:58:12.679Z,2.20
2023-02-18T07:59:14.691Z,2.20
2023-02-18T08:00:18.025Z,2.35
2023-02-18T08:01:23.771Z,2.10
2023-02-18T08:02:26.774Z,2.00
2023-02-18T08:03:30.918Z,1.92
2023-02-18T08:04:34.612Z,2.00
2023-02-18T08:05:36.168Z,1.95
2023-02-18T08:06:40.972Z,2.17
2023-02-18T08:07:42.744Z,1.80
2023-02-18T08:08:45.199Z,1.42
2023-02-18T08:09:48.932Z,1.48
2023-02-18T08:10:52.290Z,1.80
2023-02-18T08:11:53.774Z,1.60
2023-02-18T08:12:56.581Z,2.00
2023-02-18T08:13:58.297Z,1.58
2023-02-18T08:15:00.980Z,2.20
2023-02-18T08:16:02.510Z,1.80
2023-02-18T08:17:06.554Z,1.95
2023-02-18T08:18:09.214Z,1.77
2023-02-18T08:19:11.692Z,1.70
2023-02-18T08:20:13.632Z,1.75
2023-02-18T08:21:16.628Z,2.25
2023-02-18T08:22:18.153Z,2.97
2023-02-18T08:23:22.684Z,1.88
2023-02-18T08:24:25.158Z,1.98
2023-02-18T08:25:29.741Z,1.67
2023-02-18T08:31:18.594Z,1.80
2023-02-18T08:32:21.791Z,1.85
2023-02-18T08:33:24.688Z,1.63
2023-02-18T08:34:26.451Z,1.90
2023-02-18T08:35:29.050Z,2.13
2023-02-18T08:36:31.104Z,2.30
2023-02-18T08:37:53.120Z,2.85
2023-02-18T08:38:56.152Z,2.60
2023-02-18T08:39:57.803Z,2.60
2023-02-18T08:41:04.285Z,2.30
2023-02-18T08:42:06.048Z,2.25
2023-02-18T08:43:08.588Z,2.25
2023-02-18T08:44:10.138Z,2.10
2023-02-18T08:45:12.607Z,2.58
2023-02-18T08:46:16.553Z,2.05
2023-02-18T08:48:17.097Z,1.98
2023-02-18T08:48:51.724Z,2.17
2023-02-18T08:49:53.676Z,2.42
2023-02-18T08:50:56.329Z,2.08
2023-02-18T08:51:59.214Z,2.53
2023-02-18T08:53:03.248Z,2.97
2023-02-18T08:54:06.237Z,2.40
2023-02-18T08:55:08.337Z,2.38
2023-02-18T08:56:11.210Z,2.10
2023-02-18T08:57:13.817Z,2.58
2023-02-18T08:58:15.503Z,2.53
2023-02-18T08:59:18.045Z,3.28
2023-02-18T09:00:19.921Z,2.63
2023-02-18T09:01:29.792Z,3.00
2023-02-18T09:02:42.793Z,2.65
2023-02-18T09:03:45.547Z,2.60
2023-02-18T09:04:47.056Z,2.33
2023-02-18T09:05:49.535Z,2.20
2023-02-18T09:06:52.067Z,2.55
2023-02-18T09:07:53.688Z,3.97
2023-02-18T09:08:56.142Z,2.75
2023-02-18T09:09:57.733Z,2.70
2023-02-18T09:11:04.272Z,2.60
2023-02-18T09:12:06.829Z,1.98
2023-02-18T09:13:09.841Z,3.22
2023-02-18T09:14:12.089Z,2.70
2023-02-18T09:15:14.945Z,2.78
2023-02-18T09:16:26.303Z,2.08
2023-02-18T09:17:28.657Z,2.70
2023-02-18T09:18:33.288Z,3.00
2023-02-18T09:19:34.870Z,2.78
2023-02-18T09:20:37.380Z,3.47
2023-02-18T09:21:39.156Z,3.08
2023-02-18T09:22:41.730Z,2.67
2023-02-18T09:23:43.249Z,2.40
2023-02-18T09:24:45.808Z,2.67
2023-02-18T09:25:47.337Z,3.40
2023-02-18T09:26:50.178Z,3.13
2023-02-18T09:27:51.674Z,2.53
2023-02-18T09:28:57.060Z,2.53
2023-02-18T09:29:58.797Z,2.67
2023-02-18T09:31:05.777Z,3.00
2023-02-18T09:32:32.414Z,3.40
2023-02-18T09:33:38.652Z,2.92
2023-02-18T09:34:40.168Z,3.30
2023-02-18T09:35:44.033Z,3.15
2023-02-18T09:36:46.624Z,2.83
2023-02-18T09:37:48.170Z,4.60
2023-02-18T09:38:51.101Z,2.40
2023-02-18T09:39:52.687Z,2.70
2023-02-18T09:40:55.722Z,3.25
2023-02-18T09:41:59.360Z,2.90
2023-02-18T09:43:02.619Z,2.80
2023-02-18T09:44:12.532Z,2.50
2023-02-18T09:45:14.124Z,2.65
2023-02-18T09:46:21.219Z,2.42
2023-02-18T09:47:31.533Z,4.35
2023-02-18T09:48:36.814Z,2.78
2023-02-18T09:49:45.025Z,2.85
2023-02-18T09:50:52.535Z,2.50
2023-02-18T09:51:56.518Z,3.10
2023-02-18T09:53:00.045Z,2.28
2023-02-18T09:54:02.888Z,3.05
2023-02-18T09:55:17.764Z,3.50
2023-02-18T09:56:24.340Z,2.45
2023-02-18T09:57:30.820Z,2.97
2023-02-18T09:58:34.301Z,2.53
2023-02-18T09:59:37.814Z,3.33
2023-02-18T10:00:43.363Z,3.33
2023-02-18T10:01:48.484Z,2.75
2023-02-18T10:02:55.760Z,3.10
2023-02-18T10:04:02.801Z,2.80
2023-02-18T10:05:06.315Z,3.45
2023-02-18T10:06:13.451Z,2.35
2023-02-18T10:07:23.791Z,2.60
2023-02-18T10:08:28.762Z,3.25
2023-02-18T10:09:35.851Z,2.28
2023-02-18T10:10:41.084Z,3.70
2023-02-18T10:11:47.848Z,2.35
2023-02-18T10:12:51.928Z,2.70
2023-02-18T10:13:55.730Z,3.05
2023-02-18T10:14:59.932Z,2.55
2023-02-18T10:16:04.433Z,3.13
2023-02-18T10:17:07.134Z,2.90
2023-02-18T10:18:22.633Z,3.10
2023-02-18T10:19:29.121Z,3.30
2023-02-18T10:20:33.522Z,2.60
2023-02-18T10:21:36.937Z,3.50
2023-02-18T10:22:40.381Z,2.53
2023-02-18T10:23:54.735Z,2.97
2023-02-18T10:25:00.524Z,3.13
2023-02-18T10:26:04.944Z,2.20
2023-02-18T10:27:11.046Z,3.95
2023-02-18T10:28:13.174Z,2.90
2023-02-18T10:29:22.875Z,3.10
2023-02-18T10:30:31.568Z,2.85
2023-02-18T10:31:37.389Z,2.40
2023-02-18T10:32:43.719Z,2.90
2023-02-18T10:33:53.030Z,2.53
2023-02-18T10:35:03.854Z,2.78
2023-02-18T10:36:26.316Z,2.80
2023-02-18T10:37:47.467Z,2.50
2023-02-18T10:39:03.898Z,2.60
2023-02-18T10:40:14.095Z,3.22
2023-02-18T10:41:26.856Z,3.00
2023-02-18T10:42:37.888Z,2.95
2023-02-18T10:43:47.438Z,2.40
2023-02-18T10:45:02.202Z,2.70
2023-02-18T10:50:39.209Z,2.75
2023-02-18T10:51:48.413Z,2.70
2023-02-18T10:52:53.829Z,2.88
2023-02-18T10:53:57.107Z,2.53
2023-02-18T10:55:01.281Z,3.30
2023-02-18T10:56:06.610Z,2.67
2023-02-18T10:57:17.515Z,2.88
2023-02-18T10:58:33.224Z,3.20
2023-02-18T10:59:34.797Z,2.65
2023-02-18T11:00:41.059Z,2.60
2023-02-18T11:01:44.777Z,2.85
2023-02-18T11:02:48.988Z,2.60
2023-02-18T11:03:52.682Z,3.65
2023-02-18T11:04:55.391Z,3.90
2023-02-18T11:05:57.121Z,2.80
2023-02-18T11:07:06.554Z,2.83
2023-02-18T11:08:14.112Z,2.63
2023-02-18T11:09:29.632Z,3.75
2023-02-18T11:10:36.474Z,3.30
2023-02-18T11:11:39.039Z,3.50
2023-02-18T11:12:47.041Z,2.80
2023-02-18T11:13:53.524Z,3.33
2023-02-18T11:15:09.148Z,2.88
2023-02-18T11:16:14.165Z,2.42
2023-02-18T11:17:21.433Z,2.83
2023-02-18T11:18:31.599Z,2.55
2023-02-18T11:19:34.932Z,2.60
2023-02-18T11:20:39.102Z,3.13
2023-02-18T11:21:41.592Z,2.60
2023-02-18T11:22:45.577Z,2.85
2023-02-18T11:23:50.491Z,3.53
2023-02-18T11:25:01.220Z,3.20
2023-02-18T11:26:06.140Z,3.15
2023-02-18T11:27:13.028Z,2.80
2023-02-18T11:28:31.442Z,2.90
2023-02-18T11:29:35.266Z,2.65
2023-02-18T11:30:39.360Z,2.88
2023-02-18T11:31:44.915Z,3.40
2023-02-18T11:32:49.664Z,2.42
2023-02-18T11:33:55.591Z,3.30
2023-02-18T11:34:57.988Z,2.80
2023-02-18T11:36:06.508Z,2.38
2023-02-18T11:37:11.391Z,2.75
2023-02-18T11:38:22.562Z,3.47
2023-02-18T11:39:27.686Z,3.10
2023-02-18T11:40:32.784Z,3.17
2023-02-18T11:41:39.494Z,3.00
2023-02-18T11:42:41.062Z,4.00
2023-02-18T11:43:47.233Z,2.50
2023-02-18T11:44:53.680Z,3.03
2023-02-18T11:46:09.012Z,3.05
2023-02-18T11:47:24.432Z,2.83
2023-02-18T11:48:27.207Z,3.45
2023-02-18T11:49:31.146Z,2.42
2023-02-18T11:50:33.840Z,2.95
2023-02-18T11:51:37.164Z,3.10
2023-02-18T11:52:40.774Z,3.33
2023-02-18T11:53:59.418Z,3.08
2023-02-18T11:55:06.477Z,2.63
2023-02-18T11:56:20.237Z,2.95
2023-02-18T11:57:26.212Z,2.80
2023-02-18T11:58:31.066Z,2.28
2023-02-18T11:59:37.605Z,2.55
2023-02-18T12:00:42.350Z,3.38
2023-02-18T12:01:47.806Z,3.33
2023-02-18T12:02:50.900Z,2.72
2023-02-18T12:03:57.814Z,3.17
2023-02-18T12:05:04.560Z,2.58
2023-02-18T12:06:14.197Z,3.15
2023-02-18T12:07:21.592Z,2.90
2023-02-18T12:08:27.434Z,3.15
2023-02-18T12:09:37.498Z,2.90
2023-02-18T12:10:44.478Z,2.67
2023-02-18T12:11:52.158Z,2.80
2023-02-18T12:13:02.518Z,2.70
2023-02-18T12:19:15.735Z,2.45
2023-02-18T12:20:26.564Z,3.20
2023-02-18T12:21:41.984Z,3.08
2023-02-18T12:27:30.303Z,3.30
2023-02-18T12:28:45.878Z,2.45
2023-02-18T12:34:40.193Z,3.15
2023-02-18T12:36:00.665Z,2.47
2023-02-18T12:37:16.381Z,2.53
2023-02-18T12:38:47.693Z,2.92
2023-02-18T12:40:06.150Z,2.75
2023-02-18T12:41:29.135Z,2.80
2023-02-18T12:42:46.931Z,2.80
2023-02-18T12:43:58.730Z,2.90
2023-02-18T12:45:20.816Z,3.13
2023-02-18T12:46:37.948Z,3.90
2023-02-18T12:47:55.038Z,3.13
2023-02-18T12:49:28.447Z,3.00
2023-02-18T12:50:56.152Z,3.30
2023-02-18T12:52:10.152Z,3.10
2023-02-18T12:53:40.347Z,4.00
2023-02-18T12:55:21.221Z,3.35
2023-02-18T12:56:47.716Z,3.30
2023-02-18T12:57:58.426Z,3.60
2023-02-18T12:59:08.537Z,3.60
2023-02-18T13:00:32.571Z,3.05
2023-02-18T13:01:44.006Z,2.50
2023-02-18T13:03:08.116Z,2.88
2023-02-18T13:04:40.875Z,2.88
2023-02-18T13:05:47.339Z,3.63
2023-02-18T13:07:06.781Z,3.30
2023-02-18T13:08:26.896Z,2.40
2023-02-18T13:09:38.578Z,3.55
2023-02-18T13:10:56.026Z,4.00
2023-02-18T13:12:01.634Z,3.20
2023-02-18T13:13:12.501Z,2.50
2023-02-18T13:14:19.734Z,3.33
2023-02-18T13:15:25.390Z,3.42
2023-02-18T13:16:29.440Z,3.67
2023-02-18T13:17:37.690Z,3.17
2023-02-18T13:18:48.265Z,3.10
2023-02-18T13:19:55.237Z,3.30
2023-02-18T13:21:01.219Z,3.08
2023-02-18T13:22:06.428Z,3.35
2023-02-18T13:23:17.655Z,3.30
2023-02-18T13:24:27.921Z,3.22
2023-02-18T13:25:35.070Z,2.80
2023-02-18T13:26:38.527Z,3.22
2023-02-18T13:27:48.186Z,2.90
2023-02-18T13:29:04.233Z,3.30
2023-02-18T13:30:22.531Z,3.90
2023-02-18T13:31:37.874Z,3.25
2023-02-18T13:32:48.828Z,3.55
2023-02-18T13:33:58.507Z,3.30
2023-02-18T13:35:07.977Z,3.83
2023-02-18T13:36:17.936Z,3.17
2023-02-18T13:37:30.898Z,3.35
2023-02-18T13:38:56.917Z,3.10
2023-02-18T13:40:01.700Z,3.13
2023-02-18T13:41:05.232Z,3.15
2023-02-18T13:42:26.774Z,2.95
2023-02-18T13:43:34.342Z,3.58
2023-02-18T13:44:55.976Z,3.20
2023-02-18T13:46:10.801Z,3.67
2023-02-18T13:47:37.466Z,3.20
2023-02-18T13:48:45.736Z,3.22
2023-02-18T13:49:48.536Z,3.55
2023-02-18T13:50:52.319Z,4.00
2023-02-18T13:51:58.948Z,3.50
2023-02-18T13:53:15.603Z,2.97
2023-02-18T13:54:25.847Z,3.25
2023-02-18T13:55:39.214Z,3.60
2023-02-18T13:56:45.245Z,3.25
2023-02-18T13:57:48.182Z,3.78
2023-02-18T13:58:52.864Z,4.00
2023-02-18T14:00:00.333Z,3.60
2023-02-18T14:01:06.966Z,4.07
2023-02-18T14:02:31.758Z,4.40
2023-02-18T14:03:38.176Z,3.78
2023-02-18T14:04:53.515Z,4.25
2023-02-18T14:05:56.511Z,4.40
2023-02-18T14:07:45.169Z,4.07
2023-02-18T14:08:46.867Z,3.92
2023-02-18T14:09:49.794Z,4.30
2023-02-18T14:11:22.081Z,4.25
2023-02-18T14:12:39.207Z,3.40
2023-02-18T14:13:44.281Z,4.70
2023-02-18T14:14:46.971Z,4.18
2023-02-18T14:15:54.758Z,4.68
2023-02-18T14:17:15.673Z,4.60
2023-02-18T14:18:58.714Z,4.40
2023-02-18T14:20:38.278Z,3.35
2023-02-18T14:21:43.478Z,4.25
2023-02-18T14:22:46.691Z,4.35
2023-02-18T14:24:04.648Z,3.72
2023-02-18T14:25:20.627Z,4.95
2023-02-18T14:26:26.821Z,4.53
2023-02-18T14:27:29.418Z,4.18
2023-02-18T14:28:44.814Z,5.53
2023-02-18T14:29:47.375Z,4.25
2023-02-18T14:30:51.658Z,6.47
2023-02-18T14:31:58.193Z,4.90
2023-02-18T14:33:01.353Z,4.50
2023-02-18T14:34:26.877Z,5.55
2023-02-18T14:35:47.668Z,4.57
2023-02-18T14:36:59.925Z,4.35
2023-02-18T14:38:24.066Z,5.25
2023-02-18T14:39:37.686Z,4.78
2023-02-18T14:40:59.495Z,5.03
2023-02-18T14:42:09.484Z,4.55
2023-02-18T14:43:27.688Z,4.70
2023-02-18T14:44:51.192Z,4.40
2023-02-18T14:46:10.501Z,5.10
2023-02-18T14:47:25.456Z,4.90
2023-02-18T14:48:53.566Z,4.75
2023-02-18T14:49:59.664Z,5.95
2023-02-18T14:51:02.780Z,4.47
2023-02-18T14:52:11.833Z,4.57
2023-02-18T14:53:19.019Z,4.60
2023-02-18T14:54:24.774Z,4.40
2023-02-18T14:55:28.854Z,4.55
2023-02-18T14:56:31.946Z,4.47
2023-02-18T14:57:39.883Z,4.45
2023-02-18T14:58:44.936Z,5.13
2023-02-18T14:59:48.459Z,4.55
2023-02-18T15:00:50.106Z,5.07
2023-02-18T15:01:55.717Z,5.28
2023-02-18T15:03:02.472Z,4.57
2023-02-18T15:04:04.829Z,4.13
2023-02-18T15:05:17.478Z,5.30
2023-02-18T15:06:24.790Z,4.63
2023-02-18T15:07:27.286Z,4.47
2023-02-18T15:08:38.078Z,4.72
2023-02-18T15:09:46.932Z,4.00
2023-02-18T15:10:52.176Z,3.55
2023-02-18T15:12:00.723Z,4.50